ADDS TAF Board (Experimental) INFO Settings
IDs: Format: Expanded Condensed

KCLE - Cleveland/Hopkins In, OH, US

Issued at 0313 UTC 26 Sep 2016
Updated at 0520 UTC 26 Sep 2016
Time0451Z 26/06Z 26/07Z 26/08Z 26/09Z 26/10Z 26/11Z 26/12Z 26/13Z 26/14Z 26/15Z 26/16Z 26/17Z 26/18Z
Type OBS PRVL PRVL PRVL PRVL PRVL PRVL PRVL PRVL PRVL PRVL PRVL PRVL PRVL
VIS 10 >6 >6 >6 >6 >6 >6 >6 >6 >6 5 5 5 5
CIG -- -- -- -- -- 100 100 100 100 100 30 30 30 30
Cover SCT SCT SCT SCT SCT OVC OVC OVC OVC OVC OVC OVC OVC OVC
FltCat VFR VFR VFR VFR VFR VFR VFR VFR VFR VFR MVFR MVFR MVFR MVFR
WX -- -- -- -- -- VCSH VCSH VCSH VCSH VCSH -SHRA -SHRA -SHRA -SHRA
WDir 160 120 120 120 120 170 170 170 170 170 250 250 250 250
WSpd 6 6 6 6 6 8 8 8 8 8 12 12 12 12
WGst -- -- -- -- -- -- -- -- -- -- -- -- -- --
R06/24
XWnd -6 -6 -6 -6 -6 -7 -7 -7 -7 -7 4 4 4 4
HWnd -2 2 2 2 2 -4 -4 -4 -4 -4 -11 -11 -11 -11
R10/28
XWnd -6 -3 -3 -3 -3 -8 -8 -8 -8 -8 -5 -5 -5 -5
HWnd 2 5 5 5 5 2 2 2 2 2 -11 -11 -11 -11

Raw TAF
KCLE 260313Z 2603/2706 12006KT P6SM SCT250
  FM261000 17008KT P6SM VCSH OVC100
  FM261500 25012KT 5SM -SHRA OVC030
  FM261900 27014G24KT P6SM BKN070


Raw METAR
KCLE 260451Z 16006KT 10SM SCT250 17/08 A3005 RMK AO2 SLP172 T01670078 402440117 $
KCLE 260351Z 12004KT 10SM SCT250 18/07 A3005 RMK AO2 SLP173 T01780067 $
KCLE 260251Z 12004KT 10SM SCT250 18/07 A3007 RMK AO2 SLP178 T01780072 58008 $

METAR Board
Radar Display
Forecast Discussion

TAF Board Legend

Potential Impact
Threat None Slight Moderate High
Visibility (sm) ≥5.1 5.1>X≥3 3>X≥1 <1
Ceiling (100 ft) ≥30.1 30.1>X≥10 10>X≥5 <5
Wind Speed (kt) <10 10≤X<20 20≤X<30 ≥30
Wind Gust (kt) <15 15≤X<25 25≤X<35 ≥35
Weather No Wx Reported VCTS,-TS,-FZRA,SN TS,FZRA +TS,+FZRA,+SN